Date,TemperatureHighF,TemperatureAvgF,TemperatureLowF,DewpointHighF,DewpointAvgF,DewpointLowF,HumidityHigh,HumidityAvg,HumidityLow,PressureMaxIn,PressureMinIn,WindSpeedMaxMPH,WindSpeedAvgMPH,GustSpeedMaxMPH,PrecipitationSumIn
2013-3-1,65.0,53.8,46.7,54.1,49.9,45.7,98,87,67,30.44,30.23,7,1,9,0.00
2013-3-2,65.2,53.5,48.2,52.8,49.3,45.2,95,86,57,30.23,30.11,15,2,17,0.01
2013-3-3,56.7,51.6,49.2,51.3,49.1,46.1,96,92,81,30.15,30.10,9,2,11,0.00
2013-3-4,52.5,49.8,46.0,47.9,46.0,42.8,92,87,79,30.18,30.09,9,2,10,0.00
2013-3-5,57.6,52.1,47.6,46.9,44.2,41.7,91,75,64,30.12,29.94,19,3,23,0.01
2013-3-6,57.4,51.5,43.4,50.4,46.3,41.0,94,83,62,30.12,29.94,23,2,28,0.22
2013-3-7,58.6,49.0,42.7,47.7,44.2,40.6,98,84,63,30.03,29.86,10,1,10,0.11
2013-3-8,54.6,50.0,46.5,48.3,45.4,42.9,94,84,75,30.14,29.84,15,3,15,0.03
2013-3-9,57.4,52.1,47.5,49.7,46.3,41.9,92,81,69,30.33,30.14,12,3,13,0.00
2013-3-10,53.9,49.5,45.0,49.6,47.2,43.4,97,92,82,30.37,30.28,9,1,10,0.01
2013-3-11,57.7,50.0,43.4,51.1,47.3,42.3,98,91,77,30.28,30.14,10,1,12,0.01
2013-3-12,54.7,49.9,46.1,50.5,48.2,45.0,97,94,84,30.18,30.11,12,2,12,0.00
2013-3-13,68.5,52.6,46.8,55.3,49.5,46.0,100,90,60,30.17,30.09,12,2,13,0.00
2013-3-14,59.0,51.3,46.3,52.3,48.7,45.4,98,91,71,30.21,30.11,10,2,11,0.01
2013-3-15,60.2,53.0,46.7,53.5,49.8,45.3,96,89,77,30.17,30.09,11,2,12,0.01
2013-3-16,59.3,52.3,48.7,53.1,49.2,47.6,97,90,78,30.15,30.07,12,3,14,0.00
2013-3-17,56.4,51.6,47.3,50.5,47.9,45.6,96,87,78,30.17,30.11,13,2,15,0.00
2013-3-18,56.7,51.0,45.4,50.0,47.7,43.6,96,88,76,30.17,30.08,13,1,17,0.01
2013-3-19,60.7,53.2,46.8,52.2,48.4,43.9,95,84,70,30.20,30.07,11,2,11,0.03
2013-3-20,60.9,56.0,50.8,55.6,50.1,41.7,95,81,50,30.17,30.09,8,1,8,0.01
2013-3-21,56.2,52.1,49.0,52.1,46.8,43.2,95,82,72,30.16,30.04,17,4,17,0.00
2013-3-22,58.3,51.3,43.7,47.6,45.1,42.1,96,80,58,30.12,30.04,17,2,17,0.01
2013-3-23,61.0,50.6,40.8,49.5,45.0,38.7,94,82,51,30.15,30.08,10,2,12,0.00
2013-3-24,55.7,50.5,43.9,49.6,47.1,42.3,96,88,78,30.13,30.03,14,2,14,0.01
2013-3-25,54.2,50.3,47.7,49.2,46.9,45.3,94,88,78,30.06,30.00,10,2,12,0.00
2013-3-26,56.2,51.7,45.2,50.2,47.5,42.7,94,86,75,30.04,29.99,11,2,13,0.00
2013-3-27,64.8,55.5,48.3,55.7,51.2,46.5,95,86,72,30.05,29.99,11,2,12,0.00
2013-3-28,63.2,56.5,52.4,56.7,53.6,51.0,95,90,75,30.11,30.04,11,1,11,0.00
2013-3-29,65.5,53.3,47.8,54.7,50.7,46.8,97,91,62,30.10,30.06,17,2,17,0.01
2013-3-30,68.5,56.5,51.4,55.4,52.5,49.8,96,87,61,30.12,29.99,11,1,13,0.34
2013-3-31,68.5,58.1,50.7,55.8,52.9,49.0,96,84,61,30.10,30.01,11,2,15,0.00